NCAR-RAP Real-Time Weather Data

Output produced by METARs form (10 April 2020  04:44 UTC)
found at http://weather.rap.ucar.edu/surface/
 
KDHT 100353Z AUTO 11008KT 10SM FEW120 10/02 A3013 RMK AO2 SLP181 T01000017
KDHT 100253Z AUTO 09009KT 10SM BKN045 11/02 A3011 RMK AO2 SLP174 T01060022 53021
KDHT 100153Z AUTO 09010KT 10SM CLR 12/03 A3005 RMK AO2 SLP157 T01220028
KDHT 100053Z AUTO 09014KT 10SM CLR 15/03 A3004 RMK AO2 SLP148 T01500033
KDHT 092353Z AUTO 11013KT 10SM CLR 16/04 A3003 RMK AO2 SLP145 T01610044 10172 20139 56007
KDHT 092253Z AUTO 11011KT 10SM CLR 17/04 A3004 RMK AO2 SLP142 T01670044
KDHT 092153Z AUTO 11012G19KT 10SM CLR 17/04 A3003 RMK AO2 SLP140 T01670044
KDHT 092053Z AUTO 10012KT 10SM CLR 17/04 A3006 RMK AO2 SLP148 T01670039 58018
KDHT 091953Z AUTO 10011G18KT 10SM CLR 16/04 A3009 RMK AO2 SLP157 T01560039
KDHT 091853Z AUTO 09012G16KT 10SM CLR 15/04 A3011 RMK AO2 SLP165 T01500039
KDHT 091753Z AUTO 08008KT 10SM CLR 14/04 A3011 RMK AO2 SLP166 T01390039 10144 20061 58004
KDHT 091653Z AUTO 07012KT 10SM CLR 13/03 A3013 RMK AO2 SLP174 T01280033
KDHT 091553Z AUTO 07012KT 10SM CLR 11/03 A3014 RMK AO2 SLP180 T01110028
KDHT 091453Z AUTO 06014KT 10SM CLR 09/02 A3013 RMK AO2 SLP175 T00890022 52021
KDHT 091353Z AUTO 07014KT 10SM CLR 07/02 A3011 RMK AO2 SLP171 T00720017
KDHT 091253Z AUTO 07012KT 10SM CLR 07/02 A3008 RMK AO2 SLP150 T00670017
KDHT 091153Z AUTO 05009KT 10SM CLR 07/01 A3006 RMK AO2 SLP140 T00720011 10144 20072 53004
KDHT 091053Z AUTO 07011KT 10SM CLR 09/00 A3003 RMK AO2 SLP128 T00890000
KDHT 090953Z AUTO 06008KT 10SM CLR 10/00 A3004 RMK AO2 SLP127 T01000000
KDHT 090853Z AUTO 22004KT 10SM CLR 09/M01 A3004 RMK AO2 SLP129 T00941006 53005
KDHT 090753Z AUTO 18004KT 10SM CLR 12/M01 A3002 RMK AO2 SLP117 T01171006
KDHT 090653Z AUTO 15006KT 10SM CLR 12/M01 A3002 RMK AO2 SLP121 T01171011
KDHT 090553Z AUTO 12011KT 10SM CLR 14/M01 A3003 RMK AO2 SLP119 T01441011 10261 20128 402780061 58001